Time;durP1;ratioP1;P1;durP2;ratioP2;P2;SDS_P1;SDS_P2;PMS_P1;PMS_P2;Temp;Humidity;BMP_temperature;BMP_pressure;BME280_temperature;BME280_humidity;BME280_pressure;Samples;Min_cycle;Max_cycle;Signal;HPM_P1;HPM_P2
2022/01/08 00:02:22;;;;;;;9.27;8.38;;;5.80;99.90;;;;;;5124393;27;20213;-65
2022/01/08 00:04:49;;;;;;;8.93;8.13;;;5.90;99.90;;;;;;5133412;27;20229;-65
2022/01/08 00:07:16;;;;;;;8.85;8.05;;;5.90;99.90;;;;;;5130988;27;20628;-65
2022/01/08 00:09:42;;;;;;;8.77;7.97;;;5.80;99.90;;;;;;5131155;27;20230;-65
2022/01/08 00:12:12;;;;;;;10.10;8.57;;;5.80;99.90;;;;;;5131136;27;20217;-65
2022/01/08 00:14:39;;;;;;;9.40;8.50;;;5.80;99.90;;;;;;5133392;27;20241;-65
2022/01/08 00:17:06;;;;;;;10.77;9.65;;;5.90;99.90;;;;;;5129023;27;20693;-65
2022/01/08 00:19:33;;;;;;;12.75;11.50;;;5.80;99.90;;;;;;5122905;27;20215;-65
2022/01/08 00:22:00;;;;;;;11.38;10.32;;;5.80;99.90;;;;;;5128093;27;20229;-65
2022/01/08 00:24:26;;;;;;;9.73;8.75;;;5.70;99.90;;;;;;5126895;27;20552;-65
2022/01/08 00:26:53;;;;;;;9.77;8.88;;;5.70;99.90;;;;;;5129727;27;20232;-65
2022/01/08 00:29:21;;;;;;;10.70;9.80;;;5.60;99.90;;;;;;5134577;27;20222;-65
2022/01/08 00:31:48;;;;;;;9.43;8.55;;;5.60;99.90;;;;;;5126316;27;20218;-65
2022/01/08 00:34:15;;;;;;;10.02;9.02;;;5.60;99.90;;;;;;5133607;27;20264;-66
2022/01/08 00:36:42;;;;;;;10.30;9.15;;;5.50;99.90;;;;;;5131340;27;20210;-65
2022/01/08 00:39:09;;;;;;;9.73;8.85;;;5.50;99.90;;;;;;5127050;27;20222;-65
2022/01/08 00:41:36;;;;;;;9.68;8.68;;;5.50;99.90;;;;;;5130104;27;20230;-65
2022/01/08 00:44:02;;;;;;;9.85;8.85;;;5.50;99.90;;;;;;5130803;27;20237;-65
2022/01/08 00:46:31;;;;;;;11.10;9.68;;;5.40;99.90;;;;;;5131100;27;20221;-65
2022/01/08 00:48:57;;;;;;;9.98;9.18;;;5.40;99.90;;;;;;5134419;27;20227;-65
2022/01/08 00:51:24;;;;;;;9.93;8.90;;;5.40;99.90;;;;;;5134505;27;20236;-66
2022/01/08 00:53:51;;;;;;;9.68;8.77;;;5.30;99.90;;;;;;5134106;27;20236;-65
2022/01/08 00:56:18;;;;;;;9.38;8.50;;;5.30;99.90;;;;;;5134250;27;20222;-65
2022/01/08 00:58:45;;;;;;;9.20;8.40;;;5.20;99.90;;;;;;5130054;27;20214;-65
2022/01/08 01:01:12;;;;;;;9.25;8.40;;;5.30;99.90;;;;;;5134831;27;20667;-65
2022/01/08 01:03:40;;;;;;;8.77;8.05;;;5.20;99.90;;;;;;5134640;27;20248;-65
2022/01/08 01:06:07;;;;;;;10.88;9.88;;;5.20;99.90;;;;;;5131102;27;20222;-65
2022/01/08 01:08:34;;;;;;;9.35;8.52;;;5.20;99.90;;;;;;5134464;27;20227;-65
2022/01/08 01:11:01;;;;;;;10.00;9.00;;;5.20;99.90;;;;;;5134907;27;20226;-65
2022/01/08 01:13:28;;;;;;;10.43;9.60;;;5.20;99.90;;;;;;5134302;27;20228;-65
2022/01/08 01:15:55;;;;;;;9.82;8.82;;;5.20;99.90;;;;;;5134574;27;20218;-65
2022/01/08 01:18:21;;;;;;;10.50;9.15;;;5.20;99.90;;;;;;5134851;27;20296;-65
2022/01/08 01:20:50;;;;;;;11.18;10.20;;;5.20;99.90;;;;;;5134333;27;20267;-65
2022/01/08 01:23:21;;;;;;;11.88;10.55;;;5.20;99.90;;;;;;5134053;27;20222;-65
2022/01/08 01:25:51;;;;;;;12.35;11.25;;;5.20;99.90;;;;;;5134145;27;20218;-65
2022/01/08 01:28:31;;;;;;;10.95;9.85;;;5.20;99.90;;;;;;5134537;27;20290;-65
2022/01/08 01:42:18;;;;;;;11.85;10.68;;;5.20;99.90;;;;;;5133799;27;20354;-65
2022/01/08 01:47:34;;;;;;;11.65;10.45;;;5.30;99.90;;;;;;5124154;27;21129;-65
2022/01/08 01:50:01;;;;;;;10.57;9.57;;;5.30;99.90;;;;;;5127540;27;20321;-64
2022/01/08 01:52:30;;;;;;;12.30;11.02;;;5.30;99.90;;;;;;5133622;27;20229;-64
2022/01/08 01:54:57;;;;;;;10.48;9.38;;;5.20;99.90;;;;;;5113810;27;20575;-64
2022/01/08 01:57:24;;;;;;;9.82;8.90;;;5.20;99.90;;;;;;5131849;27;20218;-64
2022/01/08 01:59:51;;;;;;;11.55;10.55;;;5.20;99.90;;;;;;5133866;27;20230;-64
2022/01/08 02:02:18;;;;;;;11.07;10.02;;;5.30;99.90;;;;;;5133499;27;20236;-64
2022/01/08 02:04:48;;;;;;;11.75;10.32;;;5.30;99.90;;;;;;5132605;27;20256;-64
2022/01/08 02:07:15;;;;;;;9.77;8.88;;;5.30;99.90;;;;;;5120665;27;20765;-64
2022/01/08 02:09:43;;;;;;;10.88;9.75;;;5.30;99.90;;;;;;5131450;27;20236;-64
2022/01/08 02:12:17;;;;;;;10.55;9.55;;;5.30;99.90;;;;;;5133015;27;20301;-65
2022/01/08 02:14:45;;;;;;;11.77;10.65;;;5.40;99.90;;;;;;5133362;27;20581;-64
2022/01/08 02:17:12;;;;;;;9.85;8.85;;;5.40;99.90;;;;;;5128699;27;20252;-65
2022/01/08 02:19:40;;;;;;;8.98;8.20;;;5.40;99.90;;;;;;5124527;27;20218;-64
2022/01/08 02:22:15;;;;;;;10.02;9.13;;;5.50;99.90;;;;;;5133303;27;20293;-64
2022/01/08 02:24:43;;;;;;;10.00;9.10;;;5.50;99.90;;;;;;5123002;27;20230;-64
2022/01/08 02:27:10;;;;;;;11.27;10.13;;;5.50;99.90;;;;;;5130463;27;20222;-64
2022/01/08 02:29:37;;;;;;;11.40;10.02;;;5.50;99.90;;;;;;5133358;27;20721;-64
2022/01/08 02:32:07;;;;;;;10.65;9.60;;;5.40;99.90;;;;;;5123048;27;20584;-64
2022/01/08 02:34:35;;;;;;;8.70;7.85;;;5.40;99.90;;;;;;5133389;27;20930;-64
2022/01/08 02:37:02;;;;;;;11.02;10.02;;;5.40;99.90;;;;;;5133421;27;20228;-64
2022/01/08 02:39:37;;;;;;;9.32;8.60;;;5.50;99.90;;;;;;5132624;27;20571;-64
2022/01/08 02:42:05;;;;;;;9.60;8.50;;;5.40;99.90;;;;;;5125243;27;20228;-64
2022/01/08 02:44:32;;;;;;;8.70;7.90;;;5.50;99.90;;;;;;5132795;27;20218;-64
2022/01/08 02:46:59;;;;;;;9.63;8.18;;;5.50;99.90;;;;;;5145111;27;20222;-64
2022/01/08 02:49:26;;;;;;;10.30;9.35;;;5.50;99.90;;;;;;5136438;27;20226;-64
2022/01/08 02:51:53;;;;;;;9.60;8.68;;;5.50;99.90;;;;;;5137496;27;20214;-64
2022/01/08 02:54:21;;;;;;;10.35;9.38;;;5.50;99.90;;;;;;5137142;27;20686;-64
2022/01/08 02:56:50;;;;;;;9.90;8.88;;;5.50;99.90;;;;;;5137580;27;20573;-64
2022/01/08 02:59:17;;;;;;;9.80;8.90;;;5.50;99.90;;;;;;5136737;27;20233;-64
2022/01/08 03:01:44;;;;;;;9.50;8.60;;;5.50;99.90;;;;;;5137109;27;20241;-64
2022/01/08 03:04:11;;;;;;;9.80;8.93;;;5.60;99.90;;;;;;5137055;27;20239;-64
2022/01/08 03:06:38;;;;;;;8.98;8.18;;;5.60;99.90;;;;;;5129847;27;20213;-65
2022/01/08 03:09:06;;;;;;;10.13;8.13;;;5.70;99.90;;;;;;5137255;27;20675;-65
2022/01/08 03:11:32;;;;;;;10.40;8.63;;;5.60;99.90;;;;;;5136537;27;20569;-65
2022/01/08 03:14:01;;;;;;;10.38;9.35;;;5.60;99.90;;;;;;5133135;27;20236;-64
2022/01/08 03:16:28;;;;;;;10.10;8.70;;;5.70;99.90;;;;;;5136597;27;20223;-64
2022/01/08 03:18:54;;;;;;;8.60;7.80;;;5.70;99.90;;;;;;5134543;27;20271;-64
2022/01/08 03:21:22;;;;;;;9.50;8.60;;;5.80;99.90;;;;;;5135787;27;20845;-65
2022/01/08 03:23:54;;;;;;;9.48;8.55;;;5.80;99.90;;;;;;5137016;27;20222;-64
2022/01/08 03:26:23;;;;;;;8.43;7.72;;;5.80;99.90;;;;;;5132204;27;20233;-65
2022/01/08 03:28:58;;;;;;;10.20;9.40;;;5.80;99.90;;;;;;5137030;27;20240;-64
2022/01/08 03:31:27;;;;;;;9.27;8.38;;;5.70;99.90;;;;;;5133605;27;20225;-64
2022/01/08 03:33:55;;;;;;;9.02;8.25;;;5.60;99.90;;;;;;5136831;27;20255;-64
2022/01/08 03:36:25;;;;;;;9.27;8.48;;;5.60;99.90;;;;;;5136012;27;20215;-64
2022/01/08 03:38:53;;;;;;;9.48;8.65;;;5.60;99.90;;;;;;5136728;27;20240;-64
2022/01/08 03:41:22;;;;;;;9.38;8.57;;;5.60;99.90;;;;;;5136014;27;20236;-64
2022/01/08 03:43:49;;;;;;;8.73;7.93;;;5.60;99.90;;;;;;5136463;27;20218;-64
2022/01/08 03:46:18;;;;;;;9.52;8.52;;;5.60;99.90;;;;;;5136588;27;20218;-65
2022/01/08 03:49:10;;;;;;;10.23;8.90;;;5.60;99.90;;;;;;5136234;27;20222;-64
2022/01/08 03:51:35;;;;;;;9.48;8.63;;;5.60;99.90;;;;;;5135279;27;20218;-64
2022/01/08 03:54:01;;;;;;;9.60;8.70;;;5.60;99.90;;;;;;5135069;27;20278;-66
2022/01/08 03:56:29;;;;;;;9.93;9.02;;;5.50;99.90;;;;;;5132924;27;20216;-64
2022/01/08 03:58:56;;;;;;;10.40;9.35;;;5.50;99.90;;;;;;5133219;27;20533;-64
2022/01/08 04:01:23;;;;;;;10.93;9.85;;;5.50;99.90;;;;;;5134194;27;20229;-64
2022/01/08 04:03:51;;;;;;;11.43;10.23;;;5.50;99.90;;;;;;5135324;27;20218;-64
2022/01/08 04:06:18;;;;;;;10.25;9.25;;;5.60;99.90;;;;;;5135510;27;20228;-64
2022/01/08 04:08:44;;;;;;;9.55;8.60;;;5.60;99.90;;;;;;5134957;27;20223;-64
2022/01/08 04:11:11;;;;;;;9.20;8.32;;;5.50;99.90;;;;;;5136267;27;20227;-64
2022/01/08 04:13:40;;;;;;;14.73;11.48;;;5.50;99.90;;;;;;5135709;27;20709;-64
2022/01/08 04:16:11;;;;;;;12.40;11.07;;;5.50;99.90;;;;;;5136353;27;20229;-64
2022/01/08 04:18:38;;;;;;;17.50;15.70;;;5.60;99.90;;;;;;5135814;27;20214;-64
2022/01/08 04:21:28;;;;;;;12.30;11.00;;;5.60;99.90;;;;;;5136003;27;20294;-64
2022/01/08 04:23:56;;;;;;;10.68;9.60;;;5.60;99.90;;;;;;5135631;27;20794;-64
2022/01/08 04:26:23;;;;;;;9.88;8.88;;;5.60;99.90;;;;;;5136018;27;20218;-64
2022/01/08 04:28:50;;;;;;;10.27;9.43;;;5.50;99.90;;;;;;5135716;27;20239;-65
2022/01/08 04:31:17;;;;;;;10.35;9.30;;;5.50;99.90;;;;;;5135953;27;20221;-65
2022/01/08 04:33:44;;;;;;;10.27;9.27;;;5.50;99.90;;;;;;5135250;27;20223;-65
2022/01/08 04:36:12;;;;;;;8.40;7.57;;;5.50;99.90;;;;;;5135909;27;20232;-64
2022/01/08 04:38:39;;;;;;;10.80;9.70;;;5.50;99.90;;;;;;5135225;27;20226;-64
2022/01/08 04:41:06;;;;;;;10.20;9.20;;;5.50;99.90;;;;;;5135724;27;20222;-65
2022/01/08 04:43:36;;;;;;;10.90;9.40;;;5.50;99.90;;;;;;5135350;27;20563;-64
2022/01/08 04:46:03;;;;;;;9.85;8.95;;;5.50;99.90;;;;;;5135785;27;20231;-65
2022/01/08 04:48:30;;;;;;;9.82;8.93;;;5.50;99.90;;;;;;5135490;27;20679;-64
2022/01/08 04:50:57;;;;;;;8.75;7.97;;;5.60;99.90;;;;;;5135200;27;20245;-64
2022/01/08 04:53:25;;;;;;;10.20;9.20;;;5.60;99.90;;;;;;5135326;27;20218;-64
2022/01/08 04:55:52;;;;;;;10.95;9.90;;;5.60;99.90;;;;;;5135051;27;20236;-65
2022/01/08 04:58:19;;;;;;;9.77;8.80;;;5.70;99.90;;;;;;5135684;27;20564;-65
2022/01/08 05:00:46;;;;;;;9.95;8.95;;;5.70;99.90;;;;;;5134917;27;20710;-65
2022/01/08 05:03:13;;;;;;;9.45;8.55;;;5.60;99.90;;;;;;5135148;27;20228;-65
2022/01/08 05:05:40;;;;;;;9.30;8.43;;;5.70;99.90;;;;;;5134672;27;20232;-64
2022/01/08 05:08:07;;;;;;;9.65;8.70;;;5.70;99.90;;;;;;5134685;27;20234;-65
2022/01/08 05:10:35;;;;;;;8.95;8.10;;;5.70;99.90;;;;;;5134532;27;20222;-64
2022/01/08 05:13:04;;;;;;;9.80;8.80;;;5.80;99.90;;;;;;5135216;27;20240;-64
2022/01/08 05:15:31;;;;;;;9.68;8.68;;;5.80;99.90;;;;;;5135030;27;20223;-65
2022/01/08 05:17:58;;;;;;;9.52;8.30;;;5.90;99.90;;;;;;5134582;27;20225;-64
2022/01/08 05:20:30;;;;;;;9.15;8.30;;;5.80;99.90;;;;;;5134837;27;20218;-65
2022/01/08 05:23:00;;;;;;;9.45;8.35;;;5.90;99.90;;;;;;5134415;27;20226;-65
2022/01/08 05:25:28;;;;;;;9.45;8.55;;;5.90;99.90;;;;;;5134911;27;20219;-65
2022/01/08 05:27:57;;;;;;;8.52;7.72;;;5.90;99.90;;;;;;5134370;27;20230;-65
2022/01/08 05:30:25;;;;;;;9.23;8.27;;;5.80;99.90;;;;;;5134670;27;20567;-65
2022/01/08 05:32:53;;;;;;;10.15;8.50;;;5.80;99.90;;;;;;5134305;27;20222;-65
2022/01/08 05:35:21;;;;;;;9.73;8.73;;;5.80;99.90;;;;;;5134640;27;20230;-65
2022/01/08 05:37:48;;;;;;;10.18;9.18;;;5.80;99.90;;;;;;5134042;27;20218;-65
2022/01/08 05:40:15;;;;;;;9.73;8.68;;;5.80;99.90;;;;;;5134524;27;20218;-65
2022/01/08 05:42:43;;;;;;;9.15;8.25;;;5.80;99.90;;;;;;5134066;27;20656;-65
2022/01/08 05:45:11;;;;;;;10.13;9.20;;;5.80;99.90;;;;;;5134681;27;20225;-65
2022/01/08 05:47:38;;;;;;;9.40;8.50;;;5.80;99.90;;;;;;5134179;27;20228;-65
2022/01/08 05:50:06;;;;;;;8.93;8.07;;;5.80;99.90;;;;;;5134077;27;20221;-65
2022/01/08 05:52:33;;;;;;;10.80;9.73;;;5.90;99.90;;;;;;5134317;27;20222;-65
2022/01/08 05:55:00;;;;;;;9.73;8.60;;;5.90;99.90;;;;;;5134053;27;20554;-65
2022/01/08 05:57:27;;;;;;;9.90;8.63;;;5.90;99.90;;;;;;5134193;27;20218;-65
2022/01/08 05:59:54;;;;;;;9.80;8.80;;;5.90;99.90;;;;;;5133586;27;20230;-65
2022/01/08 06:02:22;;;;;;;10.35;9.45;;;5.90;99.90;;;;;;5134146;27;20238;-65
2022/01/08 06:04:49;;;;;;;9.52;8.57;;;6.00;99.90;;;;;;5133534;27;20217;-65
2022/01/08 06:07:16;;;;;;;9.90;8.90;;;6.00;99.90;;;;;;5134059;27;20573;-65
2022/01/08 06:09:43;;;;;;;9.10;8.20;;;5.90;99.90;;;;;;5133699;27;20610;-65
2022/01/08 06:12:10;;;;;;;11.23;10.20;;;6.00;99.90;;;;;;5133799;27;20236;-65
2022/01/08 06:14:37;;;;;;;10.40;9.40;;;6.00;99.90;;;;;;5134090;27;20567;-65
2022/01/08 06:17:04;;;;;;;8.85;8.05;;;6.00;99.90;;;;;;5133794;27;21084;-65
2022/01/08 06:19:33;;;;;;;9.05;8.18;;;6.00;99.90;;;;;;5133671;27;20217;-65
2022/01/08 06:22:00;;;;;;;10.00;9.10;;;6.00;99.90;;;;;;5132725;27;20300;-65
2022/01/08 06:24:27;;;;;;;12.52;9.57;;;6.10;99.90;;;;;;5133857;27;20218;-65
2022/01/08 06:26:53;;;;;;;10.68;9.57;;;6.10;99.90;;;;;;5133427;27;20236;-65
2022/01/08 06:29:21;;;;;;;11.80;10.52;;;6.10;99.90;;;;;;5133827;27;20222;-66
2022/01/08 06:31:48;;;;;;;11.65;9.93;;;6.10;99.90;;;;;;5133178;27;20226;-65
2022/01/08 06:34:16;;;;;;;13.50;10.10;;;6.10;99.90;;;;;;5133675;27;20236;-65
2022/01/08 06:36:45;;;;;;;10.25;9.25;;;6.10;99.90;;;;;;5133403;27;20222;-65
2022/01/08 06:39:12;;;;;;;10.40;8.98;;;6.10;99.90;;;;;;5133633;27;20217;-65
2022/01/08 06:41:39;;;;;;;11.50;10.30;;;6.10;99.90;;;;;;5133550;27;20514;-65
2022/01/08 06:44:06;;;;;;;12.30;9.63;;;6.20;99.90;;;;;;5133211;27;20306;-65
2022/01/08 06:46:34;;;;;;;11.30;10.20;;;6.20;99.90;;;;;;5133710;27;20593;-65
2022/01/08 06:49:01;;;;;;;13.45;10.23;;;6.20;99.90;;;;;;5133055;27;20222;-65
2022/01/08 06:51:28;;;;;;;13.40;10.85;;;6.20;99.90;;;;;;5133603;27;20230;-65
2022/01/08 06:53:56;;;;;;;12.90;10.93;;;6.20;99.90;;;;;;5132871;27;20222;-65
2022/01/08 06:56:23;;;;;;;16.65;10.55;;;6.20;99.90;;;;;;5133461;27;20271;-65
2022/01/08 06:58:50;;;;;;;10.82;9.57;;;6.30;99.90;;;;;;5133247;27;20313;-65
2022/01/08 07:01:17;;;;;;;11.35;10.15;;;6.30;99.90;;;;;;5133496;27;20279;-65
2022/01/08 07:03:44;;;;;;;13.00;11.35;;;6.30;99.90;;;;;;5132912;27;20225;-64
2022/01/08 07:06:11;;;;;;;11.65;10.45;;;6.30;99.90;;;;;;5133344;27;20222;-64
2022/01/08 07:08:40;;;;;;;13.00;11.70;;;6.30;99.90;;;;;;5133346;27;20221;-64
2022/01/08 07:11:08;;;;;;;12.80;11.32;;;6.30;99.90;;;;;;5132830;27;20301;-65
2022/01/08 07:13:35;;;;;;;12.10;10.35;;;6.30;99.90;;;;;;5133125;27;20229;-64
2022/01/08 07:16:02;;;;;;;13.98;12.43;;;6.30;99.90;;;;;;5132783;27;20226;-65
2022/01/08 07:18:28;;;;;;;11.95;10.65;;;6.30;99.90;;;;;;5133305;27;20215;-65
2022/01/08 07:20:55;;;;;;;10.73;9.60;;;6.30;99.90;;;;;;5132927;27;20719;-65
2022/01/08 07:23:22;;;;;;;11.38;10.25;;;6.40;99.90;;;;;;5133043;27;20248;-64
2022/01/08 07:25:49;;;;;;;12.30;10.93;;;6.40;99.90;;;;;;5132952;27;20227;-65
2022/01/08 07:28:17;;;;;;;14.52;10.93;;;6.40;99.90;;;;;;5133208;27;20222;-64
2022/01/08 07:30:45;;;;;;;10.13;9.13;;;6.40;99.90;;;;;;5132919;27;20241;-65
2022/01/08 07:33:13;;;;;;;11.80;10.45;;;6.30;99.90;;;;;;5136288;27;20627;-65
2022/01/08 07:35:40;;;;;;;10.40;9.25;;;6.40;99.90;;;;;;5136983;27;20309;-64
2022/01/08 07:38:07;;;;;;;11.30;10.20;;;6.30;99.90;;;;;;5136411;27;20222;-65
2022/01/08 07:40:34;;;;;;;11.95;9.85;;;6.40;99.90;;;;;;5137058;27;20572;-65
2022/01/08 07:43:01;;;;;;;13.57;10.27;;;6.40;99.90;;;;;;5136354;27;20212;-65
2022/01/08 07:45:29;;;;;;;11.23;10.00;;;6.40;99.90;;;;;;5136863;27;20233;-65
2022/01/08 07:47:56;;;;;;;11.00;10.00;;;6.40;99.90;;;;;;5136423;27;20237;-65
2022/01/08 07:50:23;;;;;;;11.45;10.35;;;6.40;99.90;;;;;;5136632;27;20240;-65
2022/01/08 07:52:50;;;;;;;11.18;9.18;;;6.40;99.90;;;;;;5136192;27;20230;-64
2022/01/08 07:55:17;;;;;;;10.05;9.05;;;6.40;99.90;;;;;;5136567;27;20217;-64
2022/01/08 07:57:43;;;;;;;11.32;9.95;;;6.40;99.90;;;;;;5136484;27;20221;-64
2022/01/08 08:00:12;;;;;;;11.57;9.77;;;6.40;99.90;;;;;;5135938;27;20233;-64
2022/01/08 08:02:40;;;;;;;9.93;8.82;;;6.30;99.90;;;;;;5136443;27;20237;-64
2022/01/08 08:05:08;;;;;;;12.18;9.25;;;6.40;99.90;;;;;;5136041;27;20225;-64
2022/01/08 08:07:37;;;;;;;12.93;11.52;;;6.40;99.90;;;;;;5136406;27;20214;-64
2022/01/08 08:10:06;;;;;;;17.17;12.90;;;6.30;99.90;;;;;;5135903;27;20226;-64
2022/01/08 08:12:33;;;;;;;16.98;13.90;;;6.30;99.90;;;;;;5136070;27;20229;-64
2022/01/08 08:14:59;;;;;;;20.77;14.90;;;6.30;99.90;;;;;;5135838;27;20233;-65
2022/01/08 08:17:26;;;;;;;19.13;13.82;;;6.30;99.90;;;;;;5136232;27;20686;-64
2022/01/08 08:19:54;;;;;;;17.60;12.82;;;6.30;99.90;;;;;;5135746;27;20575;-65
2022/01/08 08:22:21;;;;;;;14.88;12.13;;;6.30;99.90;;;;;;5136040;27;20672;-65
2022/01/08 08:24:48;;;;;;;13.07;11.30;;;6.30;99.90;;;;;;5136101;27;20233;-65
2022/01/08 08:27:15;;;;;;;11.40;10.30;;;6.30;99.90;;;;;;5135638;27;20227;-65
2022/01/08 08:29:42;;;;;;;11.40;10.30;;;6.40;99.90;;;;;;5136098;27;20238;-64
2022/01/08 08:32:09;;;;;;;11.90;10.07;;;6.40;99.90;;;;;;5135412;27;20232;-64
2022/01/08 08:34:36;;;;;;;11.60;10.43;;;6.40;99.90;;;;;;5135835;27;20227;-65
2022/01/08 08:37:05;;;;;;;13.70;10.00;;;6.40;99.90;;;;;;5135453;27;20565;-65
2022/01/08 08:39:32;;;;;;;10.68;9.50;;;6.30;99.90;;;;;;5135619;27;20229;-64
2022/01/08 08:41:59;;;;;;;10.77;9.68;;;6.20;99.90;;;;;;5135269;27;20726;-64
2022/01/08 08:44:27;;;;;;;11.75;9.23;;;6.20;99.90;;;;;;5134655;27;20219;-64
2022/01/08 08:46:53;;;;;;;10.68;9.38;;;6.20;99.90;;;;;;5135206;27;20246;-65
2022/01/08 08:49:21;;;;;;;12.13;8.80;;;6.20;99.90;;;;;;5135388;27;20560;-65
2022/01/08 08:51:48;;;;;;;10.60;9.57;;;6.20;99.90;;;;;;5134817;27;20218;-65
2022/01/08 08:54:16;;;;;;;11.00;10.00;;;6.20;99.90;;;;;;5134914;27;20213;-64
2022/01/08 08:56:43;;;;;;;9.82;8.82;;;6.20;99.90;;;;;;5135362;27;20223;-64
2022/01/08 08:59:10;;;;;;;11.43;10.23;;;6.20;99.90;;;;;;5135044;27;20287;-64
2022/01/08 09:01:38;;;;;;;11.32;10.20;;;6.20;99.90;;;;;;5134980;27;20237;-65
2022/01/08 09:04:05;;;;;;;11.07;9.88;;;6.20;99.90;;;;;;5134613;27;20229;-64
2022/01/08 09:06:32;;;;;;;11.02;9.75;;;6.20;99.90;;;;;;5135258;27;20225;-64
2022/01/08 09:09:00;;;;;;;11.23;10.13;;;6.20;99.90;;;;;;5134515;27;20271;-64
2022/01/08 09:11:29;;;;;;;11.35;10.20;;;6.20;99.90;;;;;;5135027;27;20533;-65
2022/01/08 09:13:56;;;;;;;11.38;10.02;;;6.20;99.90;;;;;;5134538;27;20226;-65
2022/01/08 09:16:23;;;;;;;11.88;10.57;;;6.10;99.90;;;;;;5135102;27;20418;-65
2022/01/08 09:18:50;;;;;;;11.73;10.63;;;6.10;99.90;;;;;;5134956;27;20324;-64
2022/01/08 09:21:17;;;;;;;11.27;10.07;;;6.10;99.90;;;;;;5134636;27;20429;-64
2022/01/08 09:23:45;;;;;;;12.82;10.88;;;6.20;99.90;;;;;;5135027;27;20228;-64
2022/01/08 09:26:12;;;;;;;12.32;11.13;;;6.10;99.90;;;;;;5134857;27;20574;-64
2022/01/08 09:28:40;;;;;;;14.60;10.98;;;6.10;99.90;;;;;;5134914;27;20237;-64
2022/01/08 09:31:07;;;;;;;11.90;10.60;;;6.10;99.90;;;;;;5134195;27;20231;-64
2022/01/08 09:33:35;;;;;;;14.82;10.73;;;6.10;99.90;;;;;;5134737;27;20218;-64
2022/01/08 09:36:03;;;;;;;11.07;9.98;;;6.20;99.90;;;;;;5134271;27;20314;-64
2022/01/08 09:38:30;;;;;;;11.07;9.85;;;6.20;99.90;;;;;;5134510;27;20225;-64
2022/01/08 09:40:57;;;;;;;12.55;11.25;;;6.20;99.90;;;;;;5134336;27;20562;-64
2022/01/08 09:43:23;;;;;;;11.63;10.00;;;6.20;99.90;;;;;;5134460;27;20218;-65
2022/01/08 09:45:52;;;;;;;12.23;10.52;;;6.30;99.90;;;;;;5134366;27;20222;-65
2022/01/08 09:48:18;;;;;;;11.38;9.57;;;6.30;99.90;;;;;;5134088;27;20228;-65
2022/01/08 09:50:46;;;;;;;11.57;10.48;;;6.30;99.90;;;;;;5134361;27;20230;-65
2022/01/08 09:53:13;;;;;;;11.52;10.15;;;6.30;99.90;;;;;;5133728;27;20302;-65
2022/01/08 09:55:40;;;;;;;10.43;9.32;;;6.30;99.90;;;;;;5134380;27;20226;-64
2022/01/08 09:58:07;;;;;;;11.70;10.05;;;6.40;99.90;;;;;;5133882;27;20564;-64
2022/01/08 10:00:38;;;;;;;11.70;10.50;;;6.40;99.90;;;;;;5134397;27;20232;-63
2022/01/08 10:03:21;;;;;;;11.52;10.40;;;6.40;99.90;;;;;;5133734;27;20231;-65
2022/01/08 10:05:50;;;;;;;14.32;11.45;;;6.50;99.90;;;;;;5124163;27;20222;-65
2022/01/08 10:08:22;;;;;;;12.00;10.77;;;6.50;99.90;;;;;;5113181;27;20226;-65
2022/01/08 10:10:56;;;;;;;11.55;10.45;;;6.50;99.90;;;;;;5113730;27;20226;-65
2022/01/08 10:13:27;;;;;;;12.57;11.10;;;6.50;99.90;;;;;;5113212;27;20227;-65
2022/01/08 10:18:42;;;;;;;16.98;13.20;;;6.50;99.90;;;;;;5113694;27;20671;-64
2022/01/08 10:21:18;;;;;;;19.38;17.27;;;6.40;99.90;;;;;;5113191;27;20242;-64
2022/01/08 10:23:46;;;;;;;15.10;13.57;;;6.40;99.90;;;;;;5112887;27;20236;-64
2022/01/08 10:26:16;;;;;;;14.63;13.13;;;6.40;99.90;;;;;;5113185;27;20230;-64
2022/01/08 10:28:46;;;;;;;13.65;12.25;;;6.40;99.90;;;;;;5124300;27;20568;-64
2022/01/08 10:31:19;;;;;;;12.07;9.98;;;6.40;99.90;;;;;;5133495;27;20214;-65
2022/01/08 10:33:52;;;;;;;13.10;10.70;;;6.50;99.90;;;;;;5133763;27;20223;-64
2022/01/08 10:36:24;;;;;;;12.50;10.95;;;6.50;99.90;;;;;;5133697;27;20955;-65
2022/01/08 10:38:53;;;;;;;11.30;10.13;;;6.50;99.90;;;;;;5133729;27;20226;-65
2022/01/08 10:41:21;;;;;;;11.05;9.90;;;6.50;99.90;;;;;;5133412;27;20240;-65
2022/01/08 10:43:48;;;;;;;10.35;9.35;;;6.50;99.90;;;;;;5133558;27;20226;-64
2022/01/08 10:46:17;;;;;;;10.43;9.20;;;6.50;99.90;;;;;;5133156;27;20222;-65
2022/01/08 10:48:48;;;;;;;10.48;9.43;;;6.60;99.90;;;;;;5133804;27;20219;-65
2022/01/08 10:51:21;;;;;;;10.95;9.85;;;6.60;99.90;;;;;;5133235;27;20691;-64
2022/01/08 10:53:56;;;;;;;10.52;9.50;;;6.70;99.90;;;;;;5133362;27;20222;-65
2022/01/08 10:56:27;;;;;;;10.18;9.25;;;6.70;99.90;;;;;;5133281;27;20222;-64
2022/01/08 10:59:04;;;;;;;11.88;10.35;;;6.70;99.90;;;;;;5133614;27;20673;-66
2022/01/08 11:01:48;;;;;;;11.05;9.95;;;6.80;99.90;;;;;;5133460;27;20244;-64
2022/01/08 11:04:19;;;;;;;12.75;10.32;;;6.80;99.90;;;;;;5133037;27;20226;-64
2022/01/08 11:06:55;;;;;;;11.55;10.25;;;6.80;99.90;;;;;;5134367;27;20226;-65
2022/01/08 11:09:24;;;;;;;14.60;11.27;;;6.80;99.90;;;;;;5137175;27;20219;-65
2022/01/08 11:11:52;;;;;;;13.48;12.18;;;6.90;99.90;;;;;;5137463;27;20828;-65
2022/01/08 11:17:07;;;;;;;12.45;11.10;;;6.90;99.90;;;;;;5137195;27;20225;-65
2022/01/08 11:19:37;;;;;;;14.68;11.57;;;7.00;99.90;;;;;;5137257;27;20218;-64
2022/01/08 11:22:06;;;;;;;12.85;11.55;;;7.10;99.90;;;;;;5137304;27;20219;-64
2022/01/08 11:24:33;;;;;;;11.82;10.65;;;7.10;99.90;;;;;;5137142;27;20215;-65
2022/01/08 11:27:00;;;;;;;11.20;10.00;;;7.10;99.90;;;;;;5137290;27;20215;-65
2022/01/08 11:29:31;;;;;;;11.95;10.75;;;7.00;99.90;;;;;;5136570;27;20691;-63
2022/01/08 11:32:01;;;;;;;11.20;10.13;;;7.10;99.90;;;;;;5137007;27;20253;-65
2022/01/08 11:34:30;;;;;;;12.80;11.57;;;7.10;99.90;;;;;;5136634;27;20236;-65
2022/01/08 11:36:59;;;;;;;13.82;11.65;;;7.10;99.90;;;;;;5137150;27;20623;-65
2022/01/08 11:39:28;;;;;;;11.38;10.13;;;7.20;99.90;;;;;;5136491;27;20244;-65
2022/01/08 11:41:57;;;;;;;9.88;8.98;;;7.10;99.90;;;;;;5136818;27;20237;-65
2022/01/08 11:44:26;;;;;;;12.35;9.43;;;7.10;99.90;;;;;;5136344;27;20236;-65
2022/01/08 11:46:53;;;;;;;10.38;8.35;;;7.20;99.90;;;;;;5136878;27;20229;-65
2022/01/08 11:49:21;;;;;;;11.05;9.80;;;7.10;99.90;;;;;;5136016;27;20703;-65
2022/01/08 11:51:48;;;;;;;13.00;10.35;;;7.10;99.90;;;;;;5136464;27;20280;-66
2022/01/08 11:54:16;;;;;;;12.15;10.07;;;7.10;99.90;;;;;;5136330;27;20226;-65
2022/01/08 11:56:43;;;;;;;10.57;8.98;;;7.10;99.90;;;;;;5136583;27;20697;-65
2022/01/08 11:59:12;;;;;;;10.70;9.60;;;7.00;99.90;;;;;;5136204;27;20236;-65
2022/01/08 12:01:41;;;;;;;11.95;10.27;;;7.00;99.90;;;;;;5136488;27;20234;-65
2022/01/08 12:04:08;;;;;;;10.18;8.25;;;7.00;99.90;;;;;;5136212;27;20237;-65
2022/01/08 12:06:38;;;;;;;7.57;6.15;;;7.00;99.90;;;;;;5135710;27;20222;-65
2022/01/08 12:09:25;;;;;;;7.07;6.38;;;7.00;99.90;;;;;;5136493;27;20223;-65
2022/01/08 12:12:03;;;;;;;9.38;7.55;;;7.00;99.90;;;;;;5136373;27;20218;-64
2022/01/08 12:14:31;;;;;;;10.32;8.15;;;7.00;99.90;;;;;;5136485;27;20314;-64
2022/01/08 12:16:59;;;;;;;8.65;6.80;;;7.00;99.90;;;;;;5135883;27;20233;-64
2022/01/08 12:19:32;;;;;;;8.07;7.28;;;7.00;99.90;;;;;;5130441;27;20227;-64
2022/01/08 12:22:00;;;;;;;11.73;8.10;;;7.00;99.90;;;;;;5133817;27;20224;-64
2022/01/08 12:24:37;;;;;;;10.90;7.38;;;7.00;99.90;;;;;;5136085;27;20218;-64
2022/01/08 12:27:37;;;;;;;9.65;8.50;;;7.00;99.90;;;;;;5135714;27;20223;-64
2022/01/08 12:30:05;;;;;;;10.48;8.15;;;7.00;99.90;;;;;;5134700;27;20678;-64
2022/01/08 12:32:35;;;;;;;10.18;7.60;;;7.00;99.90;;;;;;5135914;27;20229;-64
2022/01/08 12:35:28;;;;;;;10.65;8.32;;;7.00;99.90;;;;;;5135753;27;20662;-64
2022/01/08 12:37:59;;;;;;;10.35;8.85;;;7.00;99.90;;;;;;5135018;27;20243;-64
2022/01/08 12:40:38;;;;;;;12.18;9.48;;;7.10;99.90;;;;;;5135841;27;20677;-64
2022/01/08 12:43:21;;;;;;;9.80;8.90;;;7.00;99.90;;;;;;5135341;27;20211;-64
2022/01/08 12:45:50;;;;;;;13.35;10.52;;;7.00;99.90;;;;;;5135569;27;20305;-64
2022/01/08 12:48:18;;;;;;;15.02;9.23;;;7.00;99.90;;;;;;5135370;27;20661;-64
2022/01/08 12:50:56;;;;;;;10.88;9.45;;;7.00;99.90;;;;;;5135607;27;20223;-63
2022/01/08 12:53:27;;;;;;;8.88;7.90;;;6.90;99.90;;;;;;5135177;27;20219;-63
2022/01/08 12:56:10;;;;;;;11.30;8.35;;;6.90;99.90;;;;;;5135560;27;20227;-63
2022/01/08 12:58:49;;;;;;;8.70;7.82;;;7.00;99.90;;;;;;5134214;27;20219;-63
2022/01/08 13:01:18;;;;;;;13.13;7.25;;;7.00;99.90;;;;;;5135517;27;20682;-64
2022/01/08 13:03:46;;;;;;;11.77;10.60;;;7.00;99.90;;;;;;5134748;27;20227;-63
2022/01/08 13:06:34;;;;;;;11.10;9.15;;;7.00;99.90;;;;;;5116540;27;20237;-64
2022/01/08 13:09:02;;;;;;;10.18;8.93;;;7.00;99.90;;;;;;5114705;27;20224;-64
2022/01/08 13:11:31;;;;;;;11.45;9.25;;;7.00;99.90;;;;;;5114437;27;20228;-64
2022/01/08 13:14:02;;;;;;;12.32;8.90;;;7.00;99.90;;;;;;5114553;27;20224;-64